Time;durP1;ratioP1;P1;durP2;ratioP2;P2;SDS_P1;SDS_P2;PMS_P1;PMS_P2;Temp;Humidity;BMP_temperature;BMP_pressure;BME280_temperature;BME280_humidity;BME280_pressure;Samples;Min_cycle;Max_cycle;Signal;HPM_P1;HPM_P2
2022/07/22 00:00:35;;;;;;;7.63;6.93;;;;;;;19.64;78.63;101026.13;5018322;28;20217;-73
2022/07/22 00:03:01;;;;;;;7.73;7.13;;;;;;;19.64;78.56;101035.09;5020583;28;20225;-74
2022/07/22 00:05:28;;;;;;;8.10;7.30;;;;;;;19.63;78.70;101032.53;5023808;28;20214;-74
2022/07/22 00:07:54;;;;;;;7.80;7.10;;;;;;;19.63;78.42;101037.94;5023412;28;20224;-73
2022/07/22 00:10:21;;;;;;;8.37;7.63;;;;;;;19.60;78.58;101036.38;5023508;28;20209;-73
2022/07/22 00:12:48;;;;;;;7.67;6.80;;;;;;;19.59;78.53;101025.72;5023400;28;20197;-74
2022/07/22 00:15:15;;;;;;;9.03;8.23;;;;;;;19.57;78.43;101030.41;5021402;28;20211;-73
2022/07/22 00:17:42;;;;;;;9.33;7.97;;;;;;;19.56;78.77;101026.00;5022711;28;20630;-73
2022/07/22 00:20:10;;;;;;;8.90;8.13;;;;;;;19.55;78.77;101027.00;5016893;28;20220;-73
2022/07/22 00:22:36;;;;;;;7.70;7.00;;;;;;;19.52;78.95;101030.88;5023761;28;20219;-74
2022/07/22 00:25:03;;;;;;;9.10;8.30;;;;;;;19.50;78.89;101026.59;5019281;28;20211;-74
2022/07/22 00:27:31;;;;;;;8.57;7.80;;;;;;;19.48;78.89;101020.47;5020074;28;20236;-74
2022/07/22 00:29:57;;;;;;;8.37;7.63;;;;;;;19.44;79.01;101011.78;5021960;28;20340;-73
2022/07/22 00:32:24;;;;;;;8.90;8.10;;;;;;;19.40;79.17;101013.91;5019205;28;20613;-73
2022/07/22 00:34:52;;;;;;;9.03;8.33;;;;;;;19.37;79.37;101011.50;5023614;28;20213;-74
2022/07/22 00:37:18;;;;;;;13.40;8.30;;;;;;;19.36;79.50;101014.34;5018916;28;20233;-74
2022/07/22 00:39:45;;;;;;;9.90;9.10;;;;;;;19.34;79.80;101014.53;5021429;28;20210;-74
2022/07/22 00:42:11;;;;;;;9.60;8.80;;;;;;;19.32;79.89;101011.09;5018664;28;20232;-74
2022/07/22 00:44:38;;;;;;;10.43;9.37;;;;;;;19.31;79.99;101024.75;5021473;28;20221;-74
2022/07/22 00:47:05;;;;;;;10.33;9.43;;;;;;;19.29;80.20;101019.50;5016329;28;20237;-73
2022/07/22 00:49:32;;;;;;;11.23;10.23;;;;;;;19.28;80.24;101014.22;5016773;28;20583;-74
2022/07/22 00:52:00;;;;;;;11.20;10.07;;;;;;;19.26;80.47;101022.47;5018930;28;20236;-73
2022/07/22 00:54:26;;;;;;;11.33;10.33;;;;;;;19.24;80.54;101012.81;5004807;28;20206;-73
2022/07/22 00:56:53;;;;;;;11.27;10.27;;;;;;;19.22;80.62;101017.50;5005002;28;20249;-73
2022/07/22 00:59:20;;;;;;;13.20;12.03;;;;;;;19.19;81.01;101017.78;5008106;28;20503;-74
2022/07/22 01:01:47;;;;;;;14.00;12.60;;;;;;;19.17;81.22;101017.09;5007381;28;20234;-74
2022/07/22 01:04:14;;;;;;;12.77;11.67;;;;;;;19.14;81.32;101012.84;5005116;28;20210;-74
2022/07/22 01:06:44;;;;;;;12.97;11.70;;;;;;;19.11;81.23;101018.53;5006978;28;20232;-73
2022/07/22 01:09:13;;;;;;;12.73;11.63;;;;;;;19.12;81.39;101020.22;5005705;28;20728;-74
2022/07/22 01:11:40;;;;;;;12.10;11.00;;;;;;;19.10;81.57;101016.81;5005029;28;20215;-73
2022/07/22 01:14:07;;;;;;;12.40;11.37;;;;;;;19.09;81.43;101017.81;5000272;28;20209;-73
2022/07/22 01:16:33;;;;;;;11.60;10.50;;;;;;;19.07;81.55;101019.78;5008607;28;20236;-73
2022/07/22 01:19:00;;;;;;;12.13;10.80;;;;;;;19.07;81.42;101031.44;5004245;28;20676;-73
2022/07/22 01:21:28;;;;;;;12.80;11.70;;;;;;;19.08;81.74;101016.09;5005230;28;20206;-74
2022/07/22 01:23:54;;;;;;;12.13;10.93;;;;;;;19.08;81.57;101016.09;5004077;28;20225;-74
2022/07/22 01:26:21;;;;;;;12.13;10.97;;;;;;;19.07;81.67;101026.03;4998824;28;20230;-73
2022/07/22 01:28:47;;;;;;;13.37;12.17;;;;;;;19.07;81.60;101026.03;5007391;28;20209;-74
2022/07/22 01:31:14;;;;;;;11.93;10.90;;;;;;;19.06;81.78;101021.63;5002398;28;20205;-74
2022/07/22 01:33:41;;;;;;;12.50;11.50;;;;;;;19.07;81.85;101022.50;4999153;28;20202;-73
2022/07/22 01:36:08;;;;;;;12.57;11.40;;;;;;;19.06;81.90;101027.03;5004901;28;20764;-73
2022/07/22 01:38:36;;;;;;;13.03;11.73;;;;;;;19.06;82.11;101020.78;4999057;28;20204;-73
2022/07/22 01:41:02;;;;;;;11.43;10.43;;;;;;;19.07;82.35;101027.88;5000640;28;20209;-73
2022/07/22 01:43:29;;;;;;;11.90;10.73;;;;;;;19.06;82.83;101024.34;5000030;28;20644;-74
2022/07/22 01:45:56;;;;;;;11.57;10.47;;;;;;;19.07;83.10;101026.03;5002834;28;20224;-73
2022/07/22 01:48:23;;;;;;;11.97;10.93;;;;;;;19.09;83.29;101031.31;5008146;28;20209;-73
2022/07/22 01:50:50;;;;;;;11.07;10.13;;;;;;;19.10;83.17;101035.72;5005374;28;20220;-73
2022/07/22 01:53:17;;;;;;;12.17;11.00;;;;;;;19.11;83.54;101044.66;5004545;28;20614;-73
2022/07/22 01:55:45;;;;;;;13.10;11.83;;;;;;;19.12;83.90;101033.72;5002776;28;20233;-73
2022/07/22 01:58:12;;;;;;;13.30;12.03;;;;;;;19.14;84.35;101038.97;5007364;28;20202;-73
2022/07/22 02:00:38;;;;;;;12.77;11.53;;;;;;;19.16;84.81;101028.91;5002173;28;20596;-73
2022/07/22 02:03:06;;;;;;;12.87;11.67;;;;;;;19.16;85.15;101037.84;5004556;28;20236;-72
2022/07/22 02:05:33;;;;;;;14.20;12.80;;;;;;;19.16;85.32;101042.41;5002077;28;20578;-73
2022/07/22 02:08:01;;;;;;;14.13;12.73;;;;;;;19.15;85.93;101040.69;5003650;28;20202;-72
2022/07/22 02:10:28;;;;;;;14.63;13.30;;;;;;;19.15;86.29;101040.69;5007749;28;20217;-72
2022/07/22 02:12:56;;;;;;;15.50;13.93;;;;;;;19.13;86.80;101046.22;5008255;28;20212;-72
2022/07/22 02:15:22;;;;;;;17.13;14.53;;;;;;;19.13;87.07;101042.69;5008024;28;20490;-71
2022/07/22 02:17:49;;;;;;;14.80;13.40;;;;;;;19.13;87.61;101042.69;5005452;28;20213;-71
2022/07/22 02:20:16;;;;;;;15.83;14.27;;;;;;;19.12;87.99;101036.41;5003066;28;20217;-72
2022/07/22 02:22:42;;;;;;;16.13;14.43;;;;;;;19.12;88.44;101038.28;5007760;28;20903;-72
2022/07/22 02:25:09;;;;;;;13.70;12.20;;;;;;;19.13;88.51;101037.28;5001286;28;20398;-72
2022/07/22 02:27:36;;;;;;;16.07;14.47;;;;;;;19.13;88.69;101038.13;5005331;28;20734;-72
2022/07/22 02:30:05;;;;;;;14.77;13.37;;;;;;;19.14;88.78;101039.84;5005993;28;20587;-72
2022/07/22 02:32:32;;;;;;;16.57;14.90;;;;;;;19.14;88.84;101037.13;5002491;28;20593;-72
2022/07/22 02:34:58;;;;;;;16.93;15.17;;;;;;;19.15;89.01;101044.25;5001205;28;20219;-71
2022/07/22 02:37:25;;;;;;;16.53;14.93;;;;;;;19.14;89.25;101047.94;5004728;28;20232;-71
2022/07/22 02:39:51;;;;;;;17.77;15.87;;;;;;;19.14;89.43;101047.94;5005730;28;20213;-71
2022/07/22 02:42:18;;;;;;;15.90;14.40;;;;;;;19.13;89.64;101051.63;4999463;28;20236;-71
2022/07/22 02:44:44;;;;;;;14.40;13.03;;;;;;;19.11;89.76;101045.50;5001234;28;20205;-71
2022/07/22 02:47:12;;;;;;;13.07;11.87;;;;;;;19.09;89.91;101055.59;4999845;28;20232;-71
2022/07/22 02:49:39;;;;;;;11.57;10.57;;;;;;;19.04;90.19;101049.75;4998841;28;20654;-72
2022/07/22 02:52:06;;;;;;;10.83;9.90;;;;;;;19.00;90.25;101062.69;5005788;28;20600;-72
2022/07/22 02:54:32;;;;;;;10.93;9.83;;;;;;;18.93;90.26;101055.31;5003241;28;20215;-72
2022/07/22 02:56:59;;;;;;;11.70;9.63;;;;;;;18.86;90.09;101068.50;4999280;28;20244;-72
2022/07/22 02:59:25;;;;;;;9.10;8.20;;;;;;;18.78;90.11;101071.06;5004755;28;20216;-72
2022/07/22 03:01:52;;;;;;;11.00;8.70;;;;;;;18.71;90.07;101075.31;5001709;28;20207;-72
2022/07/22 03:04:20;;;;;;;9.20;8.20;;;;;;;18.64;89.98;101072.28;4996522;28;20780;-72
2022/07/22 03:06:46;;;;;;;11.97;8.07;;;;;;;18.60;90.22;101075.44;4997267;28;20227;-72
2022/07/22 03:09:13;;;;;;;8.40;7.60;;;;;;;18.55;90.19;101075.81;5003598;28;20313;-72
2022/07/22 03:11:39;;;;;;;8.33;7.53;;;;;;;18.51;90.35;101079.75;4999597;28;20650;-72
2022/07/22 03:14:06;;;;;;;9.07;8.10;;;;;;;18.47;90.25;101083.72;4996731;28;20207;-72
2022/07/22 03:16:32;;;;;;;8.90;8.00;;;;;;;18.45;90.58;101090.28;5001870;28;20270;-72
2022/07/22 03:18:59;;;;;;;10.20;8.90;;;;;;;18.41;90.49;101088.84;5002446;28;20199;-72
2022/07/22 03:21:27;;;;;;;10.43;9.33;;;;;;;18.36;90.44;101097.31;5005512;28;20212;-72
2022/07/22 03:23:54;;;;;;;9.20;8.23;;;;;;;18.33;90.40;101097.59;5001851;28;20220;-72
2022/07/22 03:26:20;;;;;;;8.07;6.43;;;;;;;18.26;90.48;101099.13;5002710;28;20275;-72
2022/07/22 03:28:47;;;;;;;8.43;6.70;;;;;;;18.22;90.26;101100.41;4999337;28;20269;-72
2022/07/22 03:31:14;;;;;;;7.80;5.83;;;;;;;18.17;90.42;101108.03;4997245;28;20207;-72
2022/07/22 03:33:41;;;;;;;7.70;5.90;;;;;;;18.10;90.30;101106.84;5006027;28;20207;-72
2022/07/22 03:36:08;;;;;;;6.83;5.67;;;;;;;18.07;90.52;101104.44;5001042;28;20223;-71
2022/07/22 03:38:36;;;;;;;6.67;5.40;;;;;;;18.03;90.51;101101.16;5004311;28;20202;-72
2022/07/22 03:41:03;;;;;;;7.03;5.67;;;;;;;17.99;90.53;101107.78;5003636;28;20208;-72
2022/07/22 03:43:30;;;;;;;6.73;5.83;;;;;;;17.95;90.50;101112.59;4998783;28;20576;-72
2022/07/22 03:45:56;;;;;;;6.77;6.07;;;;;;;17.90;90.67;101117.56;4999237;28;20242;-71
2022/07/22 03:48:23;;;;;;;6.47;5.80;;;;;;;17.87;90.72;101109.72;5006243;28;20211;-72
2022/07/22 03:50:51;;;;;;;7.97;6.77;;;;;;;17.86;91.00;101109.84;5004827;28;20685;-72
2022/07/22 03:53:18;;;;;;;8.70;6.97;;;;;;;17.84;90.91;101109.13;5001782;28;20562;-72
2022/07/22 03:55:45;;;;;;;7.00;6.40;;;;;;;17.82;91.10;101117.34;5006022;28;20230;-72
2022/07/22 03:58:12;;;;;;;7.50;6.77;;;;;;;17.83;91.14;101115.50;5005113;28;20210;-72
2022/07/22 04:00:39;;;;;;;8.03;7.23;;;;;;;17.81;91.12;101118.31;5001641;28;20210;-72
2022/07/22 04:03:05;;;;;;;8.60;7.40;;;;;;;17.80;91.11;101122.00;5002739;28;20222;-72
2022/07/22 04:05:32;;;;;;;7.67;6.97;;;;;;;17.80;91.06;101121.16;5003253;28;20263;-72
2022/07/22 04:07:58;;;;;;;8.30;7.27;;;;;;;17.80;91.19;101127.41;5007523;28;20564;-72
2022/07/22 04:10:25;;;;;;;8.20;7.40;;;;;;;17.79;91.02;101125.69;5006315;28;20217;-72
2022/07/22 04:12:53;;;;;;;8.60;7.63;;;;;;;17.79;91.07;101127.53;5001851;28;20690;-72
2022/07/22 04:15:19;;;;;;;10.13;8.70;;;;;;;17.77;91.05;101126.78;5002478;28;20211;-72
2022/07/22 04:17:46;;;;;;;9.07;7.40;;;;;;;17.74;90.94;101133.28;5002008;28;20590;-72
2022/07/22 04:20:13;;;;;;;9.37;7.53;;;;;;;17.74;90.94;101129.75;5007329;28;20219;-72
2022/07/22 04:22:39;;;;;;;8.57;7.63;;;;;;;17.73;90.97;101128.06;4998178;28;20225;-72
2022/07/22 04:25:07;;;;;;;8.33;7.33;;;;;;;17.72;90.88;101137.13;5003469;28;20674;-72
2022/07/22 04:27:34;;;;;;;7.73;7.03;;;;;;;17.68;90.93;101131.16;4996273;28;20239;-72
2022/07/22 04:30:01;;;;;;;7.77;6.97;;;;;;;17.65;90.75;101134.94;5002031;28;20690;-72
2022/07/22 04:32:28;;;;;;;8.20;6.43;;;;;;;17.64;90.94;101140.47;5002291;28;20220;-71
2022/07/22 04:34:54;;;;;;;7.87;7.07;;;;;;;17.63;91.06;101136.88;5001294;28;20206;-72
2022/07/22 04:37:21;;;;;;;8.17;6.70;;;;;;;17.63;91.11;101146.81;5005861;28;20223;-72
2022/07/22 04:39:47;;;;;;;7.10;6.37;;;;;;;17.63;91.23;101146.81;5010848;28;20208;-72
2022/07/22 04:42:14;;;;;;;7.03;6.33;;;;;;;17.63;91.30;101144.13;5009495;28;20209;-72
2022/07/22 04:44:40;;;;;;;10.80;6.50;;;;;;;17.61;91.14;101148.78;5011000;28;20716;-72
2022/07/22 04:47:08;;;;;;;6.33;5.83;;;;;;;17.60;90.96;101153.31;5005593;28;20235;-72
2022/07/22 04:49:35;;;;;;;6.60;5.90;;;;;;;17.59;90.90;101156.97;5002924;28;20210;-72
2022/07/22 04:52:01;;;;;;;6.07;5.47;;;;;;;17.58;90.78;101149.88;5009015;28;20207;-72
2022/07/22 04:54:28;;;;;;;6.77;6.07;;;;;;;17.56;90.53;101143.75;5004122;28;20205;-72
2022/07/22 04:56:54;;;;;;;6.10;5.50;;;;;;;17.54;90.57;101153.00;4998199;28;20331;-72
2022/07/22 04:59:21;;;;;;;6.90;6.27;;;;;;;17.52;90.51;101147.72;5007310;28;20207;-72
2022/07/22 05:01:47;;;;;;;6.23;5.47;;;;;;;17.50;90.28;101152.38;5008157;28;20680;-72
2022/07/22 05:04:16;;;;;;;6.40;5.80;;;;;;;17.47;89.73;101157.16;5002511;28;20269;-72
2022/07/22 05:06:42;;;;;;;6.23;5.63;;;;;;;17.47;90.03;101159.88;5001560;28;20234;-72
2022/07/22 05:09:09;;;;;;;5.40;4.90;;;;;;;17.47;90.11;101160.72;4994941;28;20610;-72
2022/07/22 05:11:35;;;;;;;5.40;4.90;;;;;;;17.47;89.91;101162.56;5005060;28;20213;-72
2022/07/22 05:14:02;;;;;;;6.10;4.63;;;;;;;17.45;89.46;101169.91;5004880;28;20215;-72
2022/07/22 05:16:28;;;;;;;5.47;4.97;;;;;;;17.41;89.37;101171.13;5005380;28;21257;-72
2022/07/22 05:18:55;;;;;;;6.13;4.80;;;;;;;17.40;89.00;101166.72;5005915;28;20209;-72
2022/07/22 05:21:22;;;;;;;5.43;4.53;;;;;;;17.37;88.78;101172.41;5001733;28;20219;-72
2022/07/22 05:23:49;;;;;;;5.37;4.87;;;;;;;17.35;88.80;101169.84;5007650;28;20957;-72
2022/07/22 05:26:16;;;;;;;5.17;4.50;;;;;;;17.34;88.64;101168.97;5005516;28;20233;-72
2022/07/22 05:28:42;;;;;;;5.20;4.70;;;;;;;17.34;88.57;101173.50;5007650;28;20864;-72
2022/07/22 05:31:09;;;;;;;7.57;5.23;;;;;;;17.35;88.69;101173.38;5008062;28;20219;-72
2022/07/22 05:33:35;;;;;;;6.70;5.43;;;;;;;17.37;88.82;101173.25;5008011;28;20198;-72
2022/07/22 05:36:02;;;;;;;6.43;5.23;;;;;;;17.40;88.95;101177.50;5009702;28;20225;-72
2022/07/22 05:38:32;;;;;;;5.63;5.23;;;;;;;17.42;88.60;101180.94;5006332;28;20210;-72
2022/07/22 05:40:59;;;;;;;5.67;5.13;;;;;;;17.43;88.98;101178.09;5005610;28;20599;-72
2022/07/22 05:43:25;;;;;;;5.33;4.03;;;;;;;17.45;88.75;101177.97;5007463;28;20248;-72
2022/07/22 05:45:52;;;;;;;5.30;3.80;;;;;;;17.45;88.43;101178.84;5005984;28;20302;-72
2022/07/22 05:48:19;;;;;;;4.70;3.60;;;;;;;17.43;88.00;101178.09;5006550;28;20581;-72
2022/07/22 05:50:45;;;;;;;6.00;3.90;;;;;;;17.42;87.66;101180.94;5006182;28;20213;-72
2022/07/22 05:53:12;;;;;;;4.13;3.83;;;;;;;17.41;87.71;101177.38;5001430;28;20199;-72
2022/07/22 05:55:40;;;;;;;3.30;3.00;;;;;;;17.42;87.23;101180.94;4997147;28;20206;-72
2022/07/22 05:58:06;;;;;;;3.77;3.47;;;;;;;17.41;87.13;101184.59;5022358;22;20230;-68
2022/07/22 06:00:33;;;;;;;3.97;3.27;;;;;;;17.39;86.87;101191.94;5016751;28;20670;-67
2022/07/22 06:02:59;;;;;;;3.07;2.80;;;;;;;17.40;86.64;101190.97;5009311;28;20209;-68
2022/07/22 06:05:26;;;;;;;3.30;3.10;;;;;;;17.38;86.56;101185.72;5014761;28;20225;-67
2022/07/22 06:07:52;;;;;;;3.63;3.13;;;;;;;17.40;86.30;101185.59;5014289;28;20219;-67
2022/07/22 06:10:19;;;;;;;4.47;3.13;;;;;;;17.41;86.10;101190.84;5014722;28;20211;-67
2022/07/22 06:12:47;;;;;;;3.03;2.73;;;;;;;17.42;85.90;101199.78;5011838;28;20216;-67
2022/07/22 06:15:13;;;;;;;4.20;2.60;;;;;;;17.40;85.38;101194.50;5017126;28;20213;-67
2022/07/22 06:17:40;;;;;;;2.57;2.37;;;;;;;17.40;85.11;101193.66;5006397;28;20229;-68
2022/07/22 06:20:07;;;;;;;4.23;2.50;;;;;;;17.41;85.04;101190.00;5017990;28;20208;-68
2022/07/22 06:22:34;;;;;;;4.93;2.40;;;;;;;17.44;85.01;101187.03;5017120;28;20296;-68
2022/07/22 06:25:00;;;;;;;3.60;2.40;;;;;;;17.44;84.96;101190.59;5015636;28;20268;-68
2022/07/22 06:27:27;;;;;;;3.93;2.33;;;;;;;17.47;84.66;101192.19;5014451;28;20283;-68
2022/07/22 06:29:55;;;;;;;3.17;2.50;;;;;;;17.47;84.49;101190.34;5012057;28;20267;-68
2022/07/22 06:32:21;;;;;;;3.30;2.40;;;;;;;17.48;84.45;101197.44;5017780;28;20218;-68
2022/07/22 06:34:48;;;;;;;3.90;2.30;;;;;;;17.48;84.15;101197.44;5014135;28;20211;-68
2022/07/22 06:37:14;;;;;;;4.97;2.33;;;;;;;17.48;84.10;101197.44;5011695;28;20233;-68
2022/07/22 06:39:41;;;;;;;2.73;1.93;;;;;;;17.49;83.86;101201.00;5011745;28;20202;-68
2022/07/22 06:42:08;;;;;;;3.27;2.10;;;;;;;17.50;83.74;101205.38;5011279;28;20245;-68
2022/07/22 06:44:34;;;;;;;2.30;2.00;;;;;;;17.50;83.32;101202.69;5009013;28;20228;-69
2022/07/22 06:47:02;;;;;;;4.80;2.20;;;;;;;17.53;83.44;101199.75;5014790;28;20231;-69
2022/07/22 06:49:29;;;;;;;3.27;2.40;;;;;;;17.53;83.24;101195.22;5010403;28;20291;-69
2022/07/22 06:51:55;;;;;;;6.17;2.93;;;;;;;17.55;83.50;101204.03;5014381;28;20209;-70
2022/07/22 06:54:22;;;;;;;3.87;3.50;;;;;;;17.55;83.15;101201.34;5013742;28;20210;-70
2022/07/22 06:56:48;;;;;;;4.27;3.93;;;;;;;17.55;83.22;101203.19;5011325;28;20241;-70
2022/07/22 06:59:15;;;;;;;4.80;3.73;;;;;;;17.55;83.39;101208.56;5011980;28;20477;-68
2022/07/22 07:01:41;;;;;;;5.80;3.90;;;;;;;17.54;83.34;101206.84;5010995;28;20212;-68
2022/07/22 07:04:09;;;;;;;4.47;4.07;;;;;;;17.55;83.48;101205.88;5011978;28;20229;-68
2022/07/22 07:06:36;;;;;;;4.83;4.17;;;;;;;17.55;83.58;101208.56;5010121;28;20236;-69
2022/07/22 07:09:03;;;;;;;4.50;3.30;;;;;;;17.55;83.68;101212.13;5018707;28;20214;-69
2022/07/22 07:11:29;;;;;;;5.53;3.10;;;;;;;17.56;83.53;101208.41;5003591;28;20210;-68
2022/07/22 07:13:56;;;;;;;5.53;3.43;;;;;;;17.55;83.85;101209.41;5014979;28;20535;-68
2022/07/22 07:16:22;;;;;;;4.40;3.40;;;;;;;17.57;84.16;101211.97;5008669;28;20265;-69
2022/07/22 07:18:49;;;;;;;4.57;2.90;;;;;;;17.62;84.41;101209.75;5010457;28;20468;-69
2022/07/22 07:21:16;;;;;;;4.43;3.30;;;;;;;17.62;84.41;101207.91;5012121;28;20215;-69
2022/07/22 07:23:43;;;;;;;5.67;3.03;;;;;;;17.63;84.20;101206.06;5011350;28;20237;-69
2022/07/22 07:26:10;;;;;;;3.60;2.93;;;;;;;17.64;84.12;101205.13;5007832;28;20202;-68
2022/07/22 07:28:37;;;;;;;3.97;3.57;;;;;;;17.65;84.06;101201.44;5010965;28;20199;-71
2022/07/22 07:31:03;;;;;;;5.23;3.60;;;;;;;17.68;84.13;101209.28;5007895;28;20350;-69
2022/07/22 07:33:30;;;;;;;5.33;3.93;;;;;;;17.69;84.01;101210.97;5007096;28;20215;-68
2022/07/22 07:35:56;;;;;;;4.17;3.30;;;;;;;17.70;83.79;101218.06;5006831;28;20208;-69
2022/07/22 07:38:24;;;;;;;5.03;3.80;;;;;;;17.71;83.51;101213.53;5010486;28;20240;-68
2022/07/22 07:40:51;;;;;;;3.70;3.40;;;;;;;17.70;83.43;101212.69;5011972;28;20219;-69
2022/07/22 07:43:18;;;;;;;7.13;3.77;;;;;;;17.71;83.39;101210.84;5011175;28;20678;-69
2022/07/22 07:45:44;;;;;;;3.83;3.50;;;;;;;17.72;83.41;101205.34;5008556;28;20235;-68
2022/07/22 07:48:11;;;;;;;4.63;3.23;;;;;;;17.77;83.48;101204.94;5011064;28;20235;-69
2022/07/22 07:50:37;;;;;;;4.63;3.73;;;;;;;17.80;83.28;101200.13;5010519;28;20207;-69
2022/07/22 07:53:04;;;;;;;5.03;3.60;;;;;;;17.86;83.45;101196.94;5012695;28;20215;-69
2022/07/22 07:55:35;;;;;;;5.63;3.80;;;;;;;17.92;83.14;101201.78;5009946;28;20213;-68
2022/07/22 07:58:02;;;;;;;3.70;3.37;;;;;;;18.00;82.97;101201.13;5014505;28;20615;-69
2022/07/22 08:00:32;;;;;;;2.97;2.67;;;;;;;18.08;82.89;101203.19;5016033;28;20202;-69
2022/07/22 08:02:58;;;;;;;3.50;2.70;;;;;;;18.16;82.21;101203.38;5003933;28;20212;-69
2022/07/22 08:05:26;;;;;;;3.00;2.47;;;;;;;18.20;81.24;101207.50;5011691;28;20219;-68
2022/07/22 08:07:53;;;;;;;2.43;1.93;;;;;;;18.22;80.70;101206.41;5014103;28;20227;-69
2022/07/22 08:10:20;;;;;;;3.13;2.00;;;;;;;18.32;80.59;101203.75;5018699;28;20680;-68
2022/07/22 08:12:48;;;;;;;3.27;2.20;;;;;;;18.39;80.45;101205.78;5012471;28;20208;-68
2022/07/22 08:15:15;;;;;;;3.13;1.80;;;;;;;18.47;79.87;101207.78;5022527;28;20209;-69
2022/07/22 08:17:42;;;;;;;5.17;2.00;;;;;;;18.55;79.41;101212.53;5011531;28;20301;-68
2022/07/22 08:20:09;;;;;;;1.67;1.57;;;;;;;18.63;78.83;101213.56;5020115;28;20212;-71
2022/07/22 08:22:35;;;;;;;1.77;1.43;;;;;;;18.69;78.05;101213.03;5012590;28;20207;-72
2022/07/22 08:25:02;;;;;;;2.03;1.60;;;;;;;18.75;77.75;101206.25;5017532;28;20227;-68
2022/07/22 08:27:29;;;;;;;2.30;1.33;;;;;;;18.84;77.44;101215.38;5011978;28;20219;-69
2022/07/22 08:29:56;;;;;;;2.70;1.60;;;;;;;18.94;77.16;101217.13;5022761;28;20214;-69
2022/07/22 08:32:23;;;;;;;2.10;1.50;;;;;;;19.06;77.41;101207.06;5014103;28;20207;-69
2022/07/22 08:34:51;;;;;;;2.43;1.30;;;;;;;19.15;76.43;101214.34;5018404;28;20208;-68
2022/07/22 08:37:17;;;;;;;1.73;1.47;;;;;;;19.24;75.81;101207.25;5019605;28;20601;-69
2022/07/22 08:39:44;;;;;;;1.63;1.40;;;;;;;19.31;74.86;101209.25;5019643;28;20240;-68
2022/07/22 08:42:13;;;;;;;2.10;1.50;;;;;;;19.35;73.98;101207.97;5016622;28;20214;-69
2022/07/22 08:44:40;;;;;;;1.97;1.60;;;;;;;19.39;73.80;101219.34;5014553;28;20229;-69
2022/07/22 08:47:08;;;;;;;3.20;2.27;;;;;;;19.42;73.61;101219.91;5010227;28;20714;-68
2022/07/22 08:49:35;;;;;;;3.43;1.80;;;;;;;19.43;73.39;101220.78;5018350;28;20209;-69
2022/07/22 08:52:02;;;;;;;2.83;2.53;;;;;;;19.45;73.37;101216.09;5016391;28;20214;-69
2022/07/22 08:54:28;;;;;;;3.70;2.20;;;;;;;19.48;73.30;101225.75;5011743;28;20208;-69
2022/07/22 08:56:55;;;;;;;3.77;2.43;;;;;;;19.50;73.12;101221.97;5014709;28;20244;-69
2022/07/22 08:59:21;;;;;;;4.30;2.47;;;;;;;19.54;73.09;101219.81;5012704;28;21475;-69
2022/07/22 09:02:05;;;;;;;5.73;2.50;;;;;;;19.59;72.85;101213.00;5017602;28;20217;-71
2022/07/22 09:04:51;;;;;;;3.60;2.43;;;;;;;19.62;72.89;101219.97;5008699;28;20235;-69
2022/07/22 09:07:24;;;;;;;3.73;2.47;;;;;;;19.65;72.48;101222.41;5012947;28;20228;-69
2022/07/22 09:09:51;;;;;;;4.63;2.37;;;;;;;19.68;72.36;101222.13;5011212;28;20266;-72
2022/07/22 09:12:17;;;;;;;2.27;2.07;;;;;;;19.72;72.57;101226.22;5010879;28;20221;-69
2022/07/22 09:14:46;;;;;;;2.43;2.00;;;;;;;19.80;72.42;101225.53;5013169;28;20576;-69
2022/07/22 09:17:27;;;;;;;4.07;1.50;;;;;;;19.83;71.93;101230.66;5008662;28;20243;-69
2022/07/22 09:19:55;;;;;;;3.87;1.70;;;;;;;19.88;71.45;101228.38;5006394;28;20582;-69
2022/07/22 09:22:40;;;;;;;3.10;1.60;;;;;;;19.89;71.54;101235.47;5008495;28;20586;-70
2022/07/22 09:25:28;;;;;;;3.70;1.73;;;;;;;19.86;70.91;101227.66;5006571;28;20238;-69
2022/07/22 09:28:09;;;;;;;3.07;1.80;;;;;;;19.84;70.85;101224.25;5007440;28;20229;-69
2022/07/22 09:30:38;;;;;;;2.27;1.90;;;;;;;19.83;70.89;101226.09;5008128;28;20670;-69
2022/07/22 09:33:06;;;;;;;4.30;2.10;;;;;;;19.82;70.44;101234.34;5009469;28;20221;-72
2022/07/22 09:35:34;;;;;;;3.90;2.10;;;;;;;19.84;70.86;101226.94;5008674;28;20212;-69
2022/07/22 09:38:04;;;;;;;4.03;2.50;;;;;;;19.89;70.84;101228.22;5010069;28;20232;-70
2022/07/22 09:40:34;;;;;;;2.87;2.00;;;;;;;19.93;70.81;101229.63;5013160;28;20218;-71
2022/07/22 09:43:02;;;;;;;3.07;2.07;;;;;;;19.98;70.57;101227.38;5011041;28;20673;-70
2022/07/22 09:45:30;;;;;;;2.13;1.87;;;;;;;20.02;69.86;101220.69;5004224;28;20237;-69
2022/07/22 09:47:59;;;;;;;3.70;2.67;;;;;;;20.05;69.85;101217.69;5011090;28;20232;-69
2022/07/22 09:50:27;;;;;;;2.93;2.00;;;;;;;20.10;69.66;101223.50;5010581;28;20235;-69
2022/07/22 09:52:57;;;;;;;3.80;1.90;;;;;;;20.19;69.48;101218.22;5011289;28;20425;-70
2022/07/22 09:55:25;;;;;;;2.90;1.93;;;;;;;20.23;69.20;101214.25;5009431;28;20968;-68
2022/07/22 09:57:54;;;;;;;2.13;1.70;;;;;;;20.28;69.05;101236.28;5011946;28;20231;-68
2022/07/22 10:00:22;;;;;;;3.13;1.93;;;;;;;20.30;68.51;101216.19;5009980;28;20209;-69
2022/07/22 10:02:53;;;;;;;2.53;2.03;;;;;;;20.32;68.06;101224.16;5011409;28;20753;-70
2022/07/22 10:05:21;;;;;;;1.83;1.67;;;;;;;20.34;68.12;101230.28;5020299;28;20238;-69
2022/07/22 10:07:49;;;;;;;2.37;1.70;;;;;;;20.34;67.86;101225.72;5011133;28;20225;-70
2022/07/22 10:10:20;;;;;;;2.77;2.13;;;;;;;20.39;67.88;101228.03;5019268;28;20241;-69
2022/07/22 10:12:49;;;;;;;3.77;2.23;;;;;;;20.41;67.54;101218.78;5010651;28;20214;-70
2022/07/22 10:15:16;;;;;;;2.83;2.37;;;;;;;20.47;67.63;101222.72;5006967;28;20687;-70
2022/07/22 10:17:45;;;;;;;3.20;2.20;;;;;;;20.50;67.12;101214.31;5006038;28;20226;-69
2022/07/22 10:20:13;;;;;;;3.47;2.63;;;;;;;20.55;67.58;101220.16;5005027;28;20207;-69
2022/07/22 10:22:51;;;;;;;3.10;2.10;;;;;;;20.62;67.52;101210.44;5013856;28;20202;-70
2022/07/22 10:25:20;;;;;;;2.73;2.10;;;;;;;20.71;67.24;101214.13;5005605;28;20233;-70
2022/07/22 10:27:48;;;;;;;2.17;1.97;;;;;;;20.80;67.19;101208.63;5010326;28;20239;-69
2022/07/22 10:30:17;;;;;;;4.07;2.87;;;;;;;20.90;66.50;101210.47;5008125;28;20304;-69
2022/07/22 10:32:44;;;;;;;2.30;1.80;;;;;;;20.92;65.83;101213.88;5008360;28;20219;-71
2022/07/22 10:35:22;;;;;;;3.20;1.87;;;;;;;20.94;65.55;101220.84;5009716;28;20207;-70
2022/07/22 10:37:52;;;;;;;2.13;1.67;;;;;;;20.97;64.98;101214.25;5010588;28;20290;-69
2022/07/22 10:40:22;;;;;;;2.20;1.90;;;;;;;21.02;64.87;101220.09;5008955;28;20221;-69
2022/07/22 10:43:09;;;;;;;2.47;1.97;;;;;;;21.07;64.74;101217.78;5007258;28;20214;-69
2022/07/22 10:45:39;;;;;;;1.70;1.50;;;;;;;21.14;64.20;101213.44;5008009;28;20761;-70
2022/07/22 10:48:08;;;;;;;2.00;1.60;;;;;;;21.18;63.89;101212.16;5005930;28;20260;-69
2022/07/22 10:51:09;;;;;;;2.40;1.67;;;;;;;21.25;63.72;101204.31;5010715;28;20202;-69
2022/07/22 10:53:44;;;;;;;1.60;1.50;;;;;;;21.31;63.59;101211.84;4972483;28;20206;-68
2022/07/22 10:56:18;;;;;;;1.85;1.73;;;;;;;21.38;63.26;101208.34;5006327;28;20220;-68
2022/07/22 10:58:47;;;;;;;1.63;1.52;;;;;;;21.45;62.80;101205.88;5007889;28;20679;-70
2022/07/22 11:01:16;;;;;;;1.70;1.48;;;;;;;21.50;62.28;101205.44;5006044;28;20214;-69
2022/07/22 11:03:45;;;;;;;2.33;1.52;;;;;;;21.50;61.54;101206.25;5005673;28;20207;-69
2022/07/22 11:06:21;;;;;;;2.80;1.27;;;;;;;21.47;61.62;101206.59;5006574;28;20229;-69
2022/07/22 11:08:49;;;;;;;2.05;1.30;;;;;;;21.46;61.38;101203.00;5000118;28;20214;-69
2022/07/22 11:11:18;;;;;;;1.30;1.20;;;;;;;21.46;61.46;101203.00;5005336;28;20228;-69
2022/07/22 11:13:46;;;;;;;1.92;1.25;;;;;;;21.46;61.55;101208.44;5006981;28;20218;-71
2022/07/22 11:16:17;;;;;;;2.05;1.40;;;;;;;21.47;61.22;101204.72;5008206;28;20208;-71
2022/07/22 11:18:52;;;;;;;1.67;1.52;;;;;;;21.50;61.07;101205.44;5006399;28;20664;-71
2022/07/22 11:21:22;;;;;;;2.20;1.70;;;;;;;21.51;60.79;101207.09;5001576;28;20296;-72
2022/07/22 11:23:50;;;;;;;2.53;1.63;;;;;;;21.50;60.71;101203.53;5003956;28;20199;-69